Terminal Aerodrome Forecast
Issued by NWS

Home | Current Version | Previous Version | Graphics & Text | Print | Product List | Glossary On
Versions: 1 2 3 4 5 6 7 8 9 10 11 12 13 14 15 16
000
FTUS43 KMPX 272323
TAFRWF
TAF
KRWF 272323Z 2800/2824 VRB04KT 5SM BR VCSH BKN050 OVC080
     FM281000 36005KT 5SM BR VCSH SCT015 OVC030
     FM281400 34005KT 4SM -SHRA BR OVC015=

USA.gov is the U.S. government's official web portal to all federal, state and local government web resources and services.